createdAt,value
2022-12-23T02:44:23.743Z,87861.00
2022-12-23T04:29:20.710Z,87928.00
2022-12-23T04:30:20.687Z,87924.00
2022-12-23T04:31:20.696Z,87924.00
2022-12-23T04:32:20.613Z,87920.00
2022-12-23T04:33:20.577Z,87924.00
2022-12-23T04:34:20.541Z,87926.00
2022-12-23T04:35:20.505Z,87930.00
2022-12-23T04:36:20.466Z,87938.00
2022-12-23T04:37:20.438Z,87946.00
2022-12-23T04:38:20.393Z,87948.00
2022-12-23T04:39:20.352Z,87948.00
2022-12-23T04:40:20.349Z,87948.00
2022-12-23T04:41:20.287Z,87944.00
2022-12-23T04:42:20.265Z,87944.00
2022-12-23T04:43:20.221Z,87938.00
2022-12-23T04:44:20.197Z,87932.00
2022-12-23T04:45:20.177Z,87932.00
2022-12-23T04:46:20.171Z,87926.00
2022-12-23T04:47:20.104Z,87922.00
2022-12-23T07:07:15.459Z,87978.00
2022-12-23T07:08:15.419Z,87976.00
2022-12-23T07:09:15.386Z,87976.00
2022-12-23T07:10:15.342Z,87978.00
2022-12-23T07:11:15.296Z,87984.00
2022-12-23T07:12:15.251Z,87982.00
2022-12-23T07:13:15.200Z,87976.00
2022-12-23T07:14:15.157Z,87974.00
2022-12-23T07:15:15.122Z,87964.00
2022-12-23T07:16:15.461Z,87966.00
2022-12-23T07:17:15.032Z,87972.00
2022-12-23T07:18:14.988Z,87978.00
2022-12-23T07:19:14.960Z,87980.00
2022-12-23T07:20:14.907Z,87976.00
2022-12-23T07:21:24.521Z,87972.00
2022-12-23T07:23:14.774Z,87962.00
2022-12-23T07:24:14.715Z,87962.00
2022-12-23T07:25:14.673Z,87962.00
2022-12-23T07:26:14.628Z,87964.00
2022-12-23T07:27:14.600Z,87966.00
2022-12-23T07:28:14.532Z,87972.00
2022-12-23T07:29:14.501Z,87982.00
2022-12-23T07:30:14.446Z,87982.00
2022-12-23T07:31:14.468Z,87982.00
2022-12-23T07:32:14.344Z,87984.00
2022-12-23T07:33:14.361Z,87984.00
2022-12-23T07:34:14.257Z,87980.00
2022-12-23T07:35:14.201Z,87982.00
2022-12-23T07:36:14.161Z,87984.00
2022-12-23T07:37:14.132Z,87982.00
2022-12-23T07:38:14.131Z,87984.00
2022-12-23T07:39:14.055Z,87980.00
2022-12-23T07:40:13.995Z,87980.00
2022-12-23T07:41:13.988Z,87978.00
2022-12-23T07:42:43.293Z,87982.00
2022-12-23T07:43:14.890Z,87978.00
2022-12-23T07:44:13.855Z,87974.00
2022-12-23T07:45:13.816Z,87974.00
2022-12-23T07:46:13.807Z,87966.00
2022-12-23T07:47:13.706Z,87966.00
2022-12-23T07:48:13.768Z,87970.00
2022-12-23T07:49:13.602Z,87968.00
2022-12-23T07:50:13.563Z,87972.00
2022-12-23T07:51:13.512Z,87972.00
2022-12-23T07:52:13.634Z,87972.00
2022-12-23T07:53:13.441Z,87968.00
2022-12-23T07:54:13.413Z,87970.00
2022-12-23T07:55:13.349Z,87968.00
2022-12-23T07:56:13.308Z,87968.00
2022-12-23T07:57:13.267Z,87970.00
2022-12-23T07:58:13.218Z,87976.00
2022-12-23T07:59:13.183Z,87976.00
2022-12-23T08:00:13.141Z,87974.00
2022-12-23T08:01:13.150Z,87976.00
2022-12-23T08:02:13.322Z,87976.00
2022-12-23T08:03:13.167Z,87968.00
2022-12-23T08:04:12.956Z,87964.00
2022-12-23T08:05:12.997Z,87966.00
2022-12-23T08:06:12.848Z,87966.00
2022-12-23T08:07:12.834Z,87962.00
2022-12-23T08:08:12.826Z,87960.00
2022-12-23T08:09:12.723Z,87970.00
2022-12-23T08:10:12.673Z,87966.00
2022-12-23T08:11:12.644Z,87968.00
2022-12-23T08:12:12.602Z,87970.00
2022-12-23T08:13:12.555Z,87968.00
2022-12-23T08:14:12.563Z,87970.00
2022-12-23T08:15:12.465Z,87966.00
2022-12-23T08:16:12.510Z,87964.00
2022-12-23T08:17:12.543Z,87960.00
2022-12-23T08:18:12.351Z,87960.00
2022-12-23T08:19:12.299Z,87962.00
2022-12-23T08:20:12.277Z,87964.00
2022-12-23T08:21:12.212Z,87966.00
2022-12-23T08:22:12.182Z,87974.00
2022-12-23T08:23:12.128Z,87976.00
2022-12-23T08:24:12.087Z,87978.00
2022-12-23T08:25:12.049Z,87978.00
2022-12-23T08:26:12.014Z,87980.00
2022-12-23T08:27:11.980Z,87982.00
2022-12-23T08:28:11.928Z,87984.00
2022-12-23T08:29:11.891Z,87984.00
2022-12-23T08:30:11.855Z,87986.00
2022-12-23T08:31:11.863Z,87986.00
2022-12-23T08:32:11.764Z,87986.00
2022-12-23T08:33:11.730Z,87984.00
2022-12-23T08:34:11.691Z,87978.00
2022-12-23T08:35:11.676Z,87976.00
2022-12-23T08:36:11.631Z,87970.00
2022-12-23T08:37:11.582Z,87966.00
2022-12-23T08:38:11.547Z,87964.00
2022-12-23T08:39:11.502Z,87966.00
2022-12-23T08:40:11.463Z,87964.00
2022-12-23T08:41:11.429Z,87962.00
2022-12-23T08:42:11.428Z,87964.00
2022-12-23T08:43:11.362Z,87968.00
2022-12-23T08:44:11.327Z,87966.00
2022-12-23T08:45:11.282Z,87974.00
2022-12-23T08:46:11.311Z,87976.00
2022-12-23T08:47:11.210Z,87978.00
2022-12-23T08:48:11.171Z,87976.00
2022-12-23T08:49:11.137Z,87974.00
2022-12-23T08:50:11.097Z,87972.00
2022-12-23T08:51:11.032Z,87970.00
2022-12-23T08:52:11.000Z,87972.00
2022-12-23T08:53:10.956Z,87978.00
2022-12-23T08:54:10.910Z,87982.00
2022-12-23T08:55:10.874Z,87986.00
2022-12-23T08:56:10.818Z,87986.00
2022-12-23T08:57:10.782Z,87984.00
2022-12-23T08:58:10.744Z,87982.00
2022-12-23T08:59:16.527Z,87978.00
2022-12-23T09:00:11.678Z,87978.00
2022-12-23T09:01:10.689Z,87978.00
2022-12-23T09:02:10.800Z,87976.00
2022-12-23T09:03:10.683Z,87974.00
2022-12-23T09:04:10.512Z,87970.00
2022-12-23T09:05:10.465Z,87970.00
2022-12-23T09:06:10.409Z,87972.00
2022-12-23T09:07:10.391Z,87974.00
2022-12-23T09:08:10.319Z,87976.00
2022-12-23T09:09:10.278Z,87978.00
2022-12-23T09:10:10.234Z,87984.00
2022-12-23T09:11:10.192Z,87986.00
2022-12-23T09:12:10.140Z,87990.00
2022-12-23T10:18:06.961Z,87990.00
2022-12-23T10:19:06.908Z,87994.00
2022-12-23T10:20:06.851Z,87992.00
2022-12-23T10:21:06.805Z,87992.00
2022-12-23T10:22:06.759Z,87988.00
2022-12-23T10:23:06.703Z,87990.00
2022-12-23T10:24:06.665Z,87994.00
2022-12-23T10:25:06.618Z,87996.00
2022-12-23T10:26:06.575Z,87996.00
2022-12-23T10:27:06.544Z,87992.00
2022-12-23T10:28:06.480Z,87992.00
2022-12-23T10:29:06.433Z,87990.00
2022-12-23T10:30:33.845Z,87988.00
2022-12-23T10:32:07.354Z,87982.00
2022-12-23T10:33:06.269Z,87980.00
2022-12-23T10:34:06.263Z,87974.00
2022-12-23T10:35:06.243Z,87976.00
2022-12-23T10:36:06.215Z,87974.00
2022-12-23T10:37:06.137Z,87972.00
2022-12-23T10:38:06.035Z,87976.00
2022-12-23T10:39:05.994Z,87974.00
2022-12-23T10:40:05.953Z,87974.00
2022-12-23T10:41:09.511Z,87974.00
2022-12-23T10:42:05.878Z,87976.00
2022-12-23T10:43:05.832Z,87974.00
2022-12-23T10:44:05.794Z,87972.00
2022-12-23T10:45:05.729Z,87970.00
2022-12-23T10:46:05.694Z,87970.00
2022-12-23T10:47:05.726Z,87970.00
2022-12-23T10:48:11.982Z,87970.00
2022-12-23T10:49:06.568Z,87970.00
2022-12-23T10:50:05.528Z,87968.00
2022-12-23T10:51:05.483Z,87966.00
2022-12-23T10:52:05.441Z,87964.00
2022-12-23T10:53:05.387Z,87958.00
2022-12-23T10:54:05.338Z,87962.00
2022-12-23T10:55:05.291Z,87964.00
2022-12-23T10:56:05.255Z,87964.00
2022-12-23T10:57:05.194Z,87958.00
2022-12-23T10:58:05.157Z,87956.00
2022-12-23T10:59:05.106Z,87956.00
2022-12-23T11:00:05.070Z,87956.00
2022-12-23T11:01:11.786Z,87950.00
2022-12-23T11:02:06.134Z,87956.00
2022-12-23T11:03:05.031Z,87948.00
2022-12-23T11:04:04.903Z,87946.00
2022-12-23T11:05:04.850Z,87950.00
2022-12-23T11:06:04.804Z,87946.00
2022-12-23T11:07:42.289Z,87946.00
2022-12-23T11:08:05.716Z,87942.00
2022-12-23T11:09:04.670Z,87938.00
2022-12-23T11:10:04.634Z,87938.00
2022-12-23T11:11:04.583Z,87936.00
2022-12-23T11:12:04.547Z,87934.00
2022-12-23T11:13:04.524Z,87932.00
2022-12-23T11:14:04.452Z,87934.00
2022-12-23T11:15:04.407Z,87932.00
2022-12-23T11:16:04.407Z,87932.00
2022-12-23T11:17:04.334Z,87932.00
2022-12-23T11:18:04.307Z,87934.00
2022-12-23T11:19:04.289Z,87934.00
2022-12-23T11:20:04.248Z,87932.00
2022-12-23T11:21:04.225Z,87936.00
2022-12-23T11:22:04.162Z,87940.00
2022-12-23T11:23:04.135Z,87942.00
2022-12-23T11:24:04.073Z,87940.00
2022-12-23T11:25:04.036Z,87942.00
2022-12-23T11:26:04.000Z,87940.00
2022-12-23T11:27:03.972Z,87938.00
2022-12-23T11:28:03.925Z,87938.00
2022-12-23T11:29:03.892Z,87934.00
2022-12-23T11:30:03.884Z,87932.00
2022-12-23T11:31:03.834Z,87928.00
2022-12-23T11:32:03.998Z,87924.00
2022-12-23T11:33:03.750Z,87924.00
2022-12-23T11:34:03.714Z,87924.00
2022-12-23T11:35:03.699Z,87920.00
2022-12-23T11:36:03.637Z,87916.00
2022-12-23T11:37:07.525Z,87916.00
2022-12-23T11:38:03.543Z,87916.00
2022-12-23T11:39:03.496Z,87912.00
2022-12-23T11:40:03.448Z,87912.00
2022-12-23T11:41:03.413Z,87912.00
2022-12-23T11:42:03.366Z,87914.00
2022-12-23T11:43:03.321Z,87914.00
2022-12-23T11:44:03.299Z,87906.00
2022-12-23T11:45:03.235Z,87904.00
2022-12-23T11:46:03.326Z,87904.00
2022-12-23T11:47:03.162Z,87902.00
2022-12-23T11:48:03.120Z,87895.00
2022-12-23T11:49:03.079Z,87893.00
2022-12-23T11:50:03.056Z,87889.00
2022-12-23T11:51:03.005Z,87885.00
2022-12-23T11:52:02.975Z,87885.00
2022-12-23T11:53:02.937Z,87879.00
2022-12-23T11:54:02.934Z,87879.00
2022-12-23T11:55:02.870Z,87879.00
2022-12-23T11:56:02.863Z,87877.00
2022-12-23T11:57:02.895Z,87875.00
2022-12-23T11:58:02.776Z,87875.00
2022-12-23T11:59:02.740Z,87871.00
2022-12-23T12:00:02.702Z,87869.00
2022-12-23T12:01:02.657Z,87871.00
2022-12-23T12:02:02.684Z,87871.00
2022-12-23T12:03:02.644Z,87867.00
2022-12-23T12:04:02.798Z,87863.00
2022-12-23T12:05:02.528Z,87861.00
2022-12-23T12:06:02.463Z,87863.00
2022-12-23T12:07:02.434Z,87863.00
2022-12-23T12:08:02.397Z,87867.00
2022-12-23T12:09:02.358Z,87871.00
2022-12-23T12:10:02.322Z,87871.00
2022-12-23T12:11:02.286Z,87875.00
2022-12-23T12:12:02.227Z,87873.00
2022-12-23T12:13:02.195Z,87871.00
2022-12-23T12:14:02.159Z,87869.00
2022-12-23T12:15:02.116Z,87865.00
2022-12-23T12:16:02.086Z,87861.00
2022-12-23T12:17:02.072Z,87857.00
2022-12-23T12:18:02.015Z,87857.00
2022-12-23T12:19:01.978Z,87857.00
2022-12-23T12:20:01.937Z,87857.00
2022-12-23T12:21:01.869Z,87857.00
2022-12-23T12:22:01.838Z,87855.00
2022-12-23T12:23:01.788Z,87857.00
2022-12-23T12:24:18.298Z,87859.00
2022-12-23T12:25:02.719Z,87859.00
2022-12-23T12:26:01.676Z,87861.00
2022-12-23T12:27:01.623Z,87861.00
2022-12-23T12:28:01.607Z,87865.00
2022-12-23T12:29:01.541Z,87863.00
2022-12-23T12:30:07.700Z,87865.00
2022-12-23T12:31:02.556Z,87861.00
2022-12-23T12:32:01.457Z,87863.00
2022-12-23T12:33:01.411Z,87861.00
2022-12-23T12:34:01.390Z,87861.00
2022-12-23T12:35:01.342Z,87861.00
2022-12-23T12:36:05.355Z,87855.00
2022-12-23T12:37:01.387Z,87853.00
2022-12-23T12:38:01.227Z,87849.00
2022-12-23T12:39:01.193Z,87849.00
2022-12-23T12:40:01.160Z,87849.00
2022-12-23T12:41:01.099Z,87847.00
2022-12-23T12:42:05.613Z,87843.00
2022-12-23T12:43:02.016Z,87841.00
2022-12-23T12:44:00.980Z,87841.00
2022-12-23T12:45:00.941Z,87841.00
2022-12-23T12:46:00.934Z,87843.00
2022-12-23T12:47:04.121Z,87841.00
2022-12-23T12:48:10.034Z,87840.00
2022-12-23T12:49:01.811Z,87840.00
2022-12-23T12:50:00.764Z,87840.00
2022-12-23T12:51:00.736Z,87836.00
2022-12-23T12:52:00.695Z,87834.00
2022-12-23T12:53:00.668Z,87836.00
2022-12-23T12:54:05.153Z,87834.00
2022-12-23T12:55:01.591Z,87830.00
2022-12-23T12:56:00.554Z,87826.00
2022-12-23T12:57:00.507Z,87822.00
2022-12-23T12:58:00.472Z,87824.00
2022-12-23T12:59:00.432Z,87820.00
2022-12-23T13:00:06.100Z,87814.00
2022-12-23T13:01:01.384Z,87818.00
2022-12-23T13:02:00.325Z,87820.00
2022-12-23T13:03:00.273Z,87822.00
2022-12-23T13:04:00.236Z,87820.00
2022-12-23T13:05:00.192Z,87820.00
2022-12-23T13:06:00.179Z,87822.00
2022-12-23T16:35:52.441Z,87849.00
2022-12-23T16:36:52.436Z,87849.00
2022-12-23T16:37:52.357Z,87847.00
2022-12-23T16:38:52.328Z,87845.00
2022-12-23T16:39:52.286Z,87843.00
2022-12-23T16:40:52.259Z,87847.00
2022-12-23T16:41:52.214Z,87849.00
2022-12-23T16:42:52.177Z,87847.00
2022-12-23T16:43:53.068Z,87847.00
2022-12-23T16:44:52.106Z,87847.00
2022-12-23T16:45:52.109Z,87845.00
2022-12-23T16:46:52.059Z,87845.00
2022-12-23T16:47:52.005Z,87843.00
2022-12-23T16:48:51.975Z,87845.00
2022-12-23T16:49:51.953Z,87849.00
2022-12-23T16:51:51.874Z,87857.00
2022-12-23T16:52:51.847Z,87857.00
2022-12-23T16:53:51.801Z,87857.00
2022-12-23T16:54:51.777Z,87853.00
2022-12-23T16:55:56.861Z,87855.00
2022-12-23T16:56:52.703Z,87855.00
2022-12-23T16:57:51.657Z,87857.00
2022-12-23T16:58:51.682Z,87859.00
2022-12-23T16:59:51.588Z,87857.00
2022-12-23T17:01:51.539Z,87853.00
2022-12-23T17:02:51.537Z,87855.00
2022-12-23T17:03:51.453Z,87859.00
2022-12-23T17:05:51.382Z,87861.00
2022-12-23T17:06:51.356Z,87863.00
2022-12-23T17:07:51.321Z,87865.00
2022-12-23T17:08:51.298Z,87865.00
2022-12-23T17:09:51.237Z,87871.00
2022-12-23T17:10:51.203Z,87869.00
2022-12-23T17:11:51.169Z,87865.00
2022-12-23T17:12:51.133Z,87863.00
2022-12-23T17:13:51.106Z,87865.00
2022-12-23T17:14:51.066Z,87869.00
2022-12-23T17:15:51.028Z,87873.00
2022-12-23T17:16:51.069Z,87873.00
2022-12-23T17:17:50.959Z,87875.00
2022-12-23T17:18:50.933Z,87875.00
2022-12-23T17:19:50.896Z,87875.00
2022-12-23T17:20:50.867Z,87875.00
2022-12-23T17:21:50.849Z,87877.00
2022-12-23T17:22:50.805Z,87875.00
2022-12-23T17:23:50.774Z,87873.00
2022-12-23T17:24:50.743Z,87871.00
2022-12-23T17:25:50.706Z,87873.00
2022-12-23T17:26:50.671Z,87877.00
2022-12-23T17:27:50.631Z,87881.00
2022-12-23T17:28:50.599Z,87881.00
2022-12-23T17:29:50.565Z,87881.00
2022-12-23T17:30:50.538Z,87877.00
2022-12-23T17:31:50.528Z,87879.00
2022-12-23T17:32:50.458Z,87875.00
2022-12-23T17:33:50.436Z,87875.00
2022-12-23T17:34:50.409Z,87873.00
2022-12-23T17:35:50.376Z,87873.00
2022-12-23T17:36:51.312Z,87873.00
2022-12-23T17:37:50.306Z,87879.00
2022-12-23T17:38:50.273Z,87885.00
2022-12-23T17:39:50.226Z,87891.00
2022-12-23T17:40:50.208Z,87891.00
2022-12-23T17:41:50.172Z,87889.00
2022-12-23T17:42:50.144Z,87889.00
2022-12-23T21:53:42.096Z,88019.00
2022-12-23T21:54:42.072Z,88029.00
2022-12-23T21:55:42.042Z,88037.00
2022-12-23T21:56:42.027Z,88043.00
2022-12-23T21:57:42.020Z,88047.00
2022-12-23T21:58:41.978Z,88051.00
2022-12-23T21:59:41.954Z,88055.00
2022-12-23T22:00:41.960Z,88053.00
2022-12-23T22:01:42.007Z,88065.00
2022-12-23T22:02:41.939Z,88065.00
2022-12-23T22:03:41.881Z,88063.00
2022-12-23T22:04:41.808Z,88061.00
2022-12-23T22:05:41.783Z,88057.00
2022-12-23T22:06:41.745Z,88061.00
2022-12-23T22:07:41.715Z,88065.00
2022-12-23T22:08:41.691Z,88065.00
2022-12-23T22:09:41.674Z,88070.00
2022-12-23T22:10:41.644Z,88068.00
2022-12-23T22:11:41.596Z,88076.00
2022-12-23T22:12:41.562Z,88072.00
2022-12-23T22:13:41.525Z,88070.00
2022-12-23T22:14:41.484Z,88068.00
2022-12-23T22:15:41.460Z,88063.00
2022-12-23T22:16:41.463Z,88072.00
2022-12-23T22:17:41.386Z,88072.00
2022-12-23T22:18:41.346Z,88072.00
2022-12-23T22:19:41.309Z,88072.00
2022-12-23T22:20:46.193Z,88074.00
2022-12-23T22:21:42.244Z,88078.00
2022-12-23T22:22:41.201Z,88078.00
2022-12-23T22:23:41.189Z,88080.00
2022-12-23T22:24:41.143Z,88080.00
2022-12-23T22:25:41.113Z,88078.00
2022-12-23T22:26:41.074Z,88078.00
2022-12-23T22:27:41.038Z,88074.00
2022-12-23T22:28:40.993Z,88074.00
2022-12-23T22:29:40.958Z,88072.00
2022-12-23T22:30:40.932Z,88065.00
2022-12-23T22:31:40.985Z,88061.00
2022-12-23T22:32:42.749Z,88059.00
2022-12-23T22:33:40.826Z,88061.00
2022-12-23T22:34:40.789Z,88065.00
2022-12-23T22:35:40.757Z,88065.00
2022-12-23T22:36:40.787Z,88066.00
2022-12-23T22:37:40.694Z,88068.00
2022-12-23T22:38:40.667Z,88068.00
2022-12-23T22:39:40.626Z,88074.00
2022-12-23T22:40:40.596Z,88076.00
2022-12-23T22:41:40.565Z,88076.00
2022-12-23T22:42:40.528Z,88070.00
2022-12-23T22:43:40.494Z,88066.00
2022-12-23T22:44:40.456Z,88063.00
2022-12-23T22:45:40.456Z,88063.00
2022-12-23T22:46:40.405Z,88063.00
2022-12-23T22:47:40.351Z,88065.00
2022-12-23T22:48:40.319Z,88066.00
2022-12-23T22:49:40.307Z,88057.00
2022-12-23T22:50:40.253Z,88047.00
2022-12-23T22:51:40.220Z,88039.00
2022-12-23T22:52:40.192Z,88035.00
2022-12-23T22:53:40.148Z,88031.00
2022-12-23T22:54:40.112Z,88027.00
